Time;durP1;ratioP1;P1;durP2;ratioP2;P2;SDS_P1;SDS_P2;PMS_P1;PMS_P2;Temp;Humidity;BMP_temperature;BMP_pressure;BME280_temperature;BME280_humidity;BME280_pressure;Samples;Min_cycle;Max_cycle;Signal;HPM_P1;HPM_P2
2022/09/01 00:00:40;;;;;;;2.15;1.58;;;25.40;51.10;;;;;;5035582;28;20030;-64
2022/09/01 00:03:09;;;;;;;2.28;1.40;;;25.40;51.10;;;;;;5020575;28;20022;-65
2022/09/01 00:05:35;;;;;;;1.75;1.30;;;25.40;51.20;;;;;;5034206;28;20080;-64
2022/09/01 00:08:02;;;;;;;2.08;1.55;;;25.30;51.10;;;;;;5021129;28;20033;-64
2022/09/01 00:10:28;;;;;;;2.38;1.48;;;25.30;51.10;;;;;;5020913;28;20099;-65
2022/09/01 00:12:54;;;;;;;1.77;1.33;;;25.30;51.10;;;;;;5019282;28;20763;-66
2022/09/01 00:15:20;;;;;;;1.80;1.40;;;25.30;51.20;;;;;;5035082;28;20041;-66
2022/09/01 00:17:48;;;;;;;2.35;1.30;;;25.30;51.20;;;;;;5018922;28;20171;-64
2022/09/01 00:20:14;;;;;;;1.70;1.38;;;25.30;51.20;;;;;;5020728;28;20041;-64
2022/09/01 00:22:39;;;;;;;1.92;1.40;;;25.30;51.20;;;;;;5035100;28;20366;-65
2022/09/01 00:25:06;;;;;;;2.00;1.40;;;25.20;51.20;;;;;;5021155;28;20025;-65
2022/09/01 00:27:32;;;;;;;2.38;1.50;;;25.20;51.20;;;;;;5035071;28;20492;-64
2022/09/01 00:29:58;;;;;;;2.05;1.30;;;25.20;51.20;;;;;;5020008;28;20033;-65
2022/09/01 00:32:25;;;;;;;2.13;1.50;;;25.20;51.20;;;;;;5026205;28;20030;-64
2022/09/01 00:34:50;;;;;;;2.20;1.50;;;25.20;51.20;;;;;;5019803;28;20058;-65
2022/09/01 00:37:16;;;;;;;2.03;1.40;;;25.20;51.30;;;;;;5036419;28;20037;-65
2022/09/01 00:39:42;;;;;;;2.20;1.50;;;25.20;51.30;;;;;;5020891;28;20062;-64
2022/09/01 00:42:08;;;;;;;2.38;1.50;;;25.20;51.30;;;;;;5019091;28;20101;-64
2022/09/01 00:44:35;;;;;;;2.40;1.45;;;25.20;51.30;;;;;;5018029;28;20026;-65
2022/09/01 00:47:01;;;;;;;2.05;1.40;;;25.10;51.30;;;;;;5018784;28;20033;-64
2022/09/01 00:49:36;;;;;;;1.92;1.50;;;25.10;51.30;;;;;;5021542;28;20358;-65
2022/09/01 00:52:14;;;;;;;1.77;1.48;;;25.10;51.30;;;;;;5019676;28;20034;-65
2022/09/01 00:54:46;;;;;;;2.45;1.58;;;25.10;51.30;;;;;;5019977;28;20030;-65
2022/09/01 00:57:13;;;;;;;1.80;1.40;;;25.10;51.30;;;;;;5019673;28;20026;-65
2022/09/01 00:59:48;;;;;;;1.88;1.40;;;25.10;51.40;;;;;;5034921;28;20026;-64
2022/09/01 01:02:14;;;;;;;2.05;1.67;;;25.10;51.40;;;;;;5018532;28;20053;-67
2022/09/01 01:04:42;;;;;;;1.50;1.20;;;25.10;51.90;;;;;;5019818;28;20479;-66
2022/09/01 01:07:10;;;;;;;2.13;1.40;;;25.10;51.40;;;;;;5020428;28;20128;-64
2022/09/01 01:09:40;;;;;;;2.13;1.50;;;25.10;51.50;;;;;;5019408;28;20030;-66
2022/09/01 01:12:08;;;;;;;1.88;1.30;;;25.10;51.50;;;;;;5019519;28;20544;-64
2022/09/01 01:14:38;;;;;;;1.95;1.33;;;25.10;51.50;;;;;;5019699;28;20046;-65
2022/09/01 01:17:05;;;;;;;2.42;1.50;;;25.10;51.50;;;;;;5019976;28;20075;-65
2022/09/01 01:23:04;;;;;;;1.60;1.20;;;25.10;51.50;;;;;;5020330;28;20029;-65
2022/09/01 01:25:34;;;;;;;2.17;1.45;;;25.10;51.50;;;;;;5023775;28;20030;-65
2022/09/01 01:28:16;;;;;;;2.13;1.40;;;25.00;51.50;;;;;;5024401;28;20068;-64
2022/09/01 01:30:51;;;;;;;1.70;1.30;;;25.00;51.50;;;;;;5037144;28;20484;-64
2022/09/01 01:33:18;;;;;;;2.08;1.50;;;25.00;51.50;;;;;;5023376;28;20060;-65
2022/09/01 01:35:45;;;;;;;1.88;1.45;;;25.00;51.50;;;;;;5022880;28;20370;-65
2022/09/01 01:38:13;;;;;;;1.83;1.42;;;25.00;51.50;;;;;;5023899;28;20472;-64
2022/09/01 01:40:40;;;;;;;2.05;1.40;;;25.00;51.50;;;;;;5022217;28;20539;-64
2022/09/01 01:43:06;;;;;;;1.75;1.30;;;25.00;51.50;;;;;;5022082;28;20025;-65
2022/09/01 01:45:32;;;;;;;2.08;1.40;;;25.00;51.60;;;;;;5023155;28;20571;-65
2022/09/01 01:48:04;;;;;;;1.70;1.20;;;25.00;51.60;;;;;;5021534;28;20564;-64
2022/09/01 01:50:34;;;;;;;2.22;1.50;;;25.00;51.60;;;;;;5038698;28;20030;-65
2022/09/01 01:53:02;;;;;;;2.00;1.42;;;25.00;51.60;;;;;;5038424;28;20029;-65
2022/09/01 01:55:30;;;;;;;1.83;1.27;;;25.00;51.60;;;;;;5023763;28;20481;-65
2022/09/01 01:57:57;;;;;;;1.70;1.30;;;25.00;51.60;;;;;;5023639;28;20430;-66
2022/09/01 02:00:26;;;;;;;1.90;1.40;;;24.90;51.60;;;;;;5036752;28;20050;-67
2022/09/01 02:02:58;;;;;;;2.22;1.35;;;24.90;51.60;;;;;;5023471;28;20029;-65
2022/09/01 02:05:30;;;;;;;2.05;1.50;;;24.90;51.60;;;;;;5023594;28;20033;-66
2022/09/01 02:08:05;;;;;;;1.85;1.40;;;25.00;51.60;;;;;;5020996;28;20033;-65
2022/09/01 02:10:39;;;;;;;2.10;1.33;;;24.90;51.60;;;;;;5022285;28;20029;-64
2022/09/01 02:13:06;;;;;;;1.83;1.30;;;24.90;51.60;;;;;;5021002;28;20033;-65
2022/09/01 02:15:46;;;;;;;1.67;1.30;;;24.90;51.60;;;;;;5022297;28;20073;-65
2022/09/01 02:18:17;;;;;;;1.80;1.20;;;24.90;51.90;;;;;;5039468;28;20098;-64
2022/09/01 02:20:46;;;;;;;2.00;1.48;;;24.90;51.70;;;;;;5037883;28;20049;-65
2022/09/01 02:23:14;;;;;;;2.00;1.40;;;24.90;51.70;;;;;;5038699;28;20072;-65
2022/09/01 02:25:43;;;;;;;1.55;1.30;;;24.90;51.70;;;;;;5020939;28;20064;-65
2022/09/01 02:28:14;;;;;;;2.95;1.50;;;24.90;51.70;;;;;;5021500;28;20025;-64
2022/09/01 02:30:41;;;;;;;1.67;1.30;;;24.90;52.20;;;;;;5022211;28;20515;-66
2022/09/01 02:33:08;;;;;;;2.03;1.40;;;24.90;51.70;;;;;;5036597;28;20065;-66
2022/09/01 02:35:36;;;;;;;2.25;1.70;;;24.80;51.70;;;;;;5022399;28;20381;-65
2022/09/01 02:38:05;;;;;;;2.28;1.63;;;24.90;51.70;;;;;;5022209;28;20389;-64
2022/09/01 02:40:32;;;;;;;1.40;1.20;;;24.80;51.70;;;;;;5038916;28;20021;-64
2022/09/01 02:42:59;;;;;;;1.67;1.33;;;24.80;51.60;;;;;;5021904;28;20036;-64
2022/09/01 02:45:28;;;;;;;1.55;1.20;;;24.80;51.70;;;;;;5022681;28;20021;-65
2022/09/01 02:47:56;;;;;;;1.70;1.30;;;24.90;51.70;;;;;;5021498;28;20512;-65
2022/09/01 02:50:23;;;;;;;1.85;1.35;;;24.90;51.80;;;;;;5022402;28;20665;-66
2022/09/01 02:52:53;;;;;;;1.95;1.30;;;24.80;51.70;;;;;;5022645;28;20025;-65
2022/09/01 02:55:22;;;;;;;2.03;1.30;;;24.80;51.70;;;;;;5037176;28;20397;-65
2022/09/01 02:57:49;;;;;;;1.85;1.30;;;24.80;51.80;;;;;;5021868;28;20026;-64
2022/09/01 03:00:27;;;;;;;2.13;1.60;;;24.80;51.70;;;;;;5020778;28;20025;-65
2022/09/01 03:02:56;;;;;;;1.77;1.27;;;24.80;51.70;;;;;;5021397;28;20013;-64
2022/09/01 03:05:25;;;;;;;1.40;1.20;;;24.80;51.80;;;;;;5019759;28;20084;-66
2022/09/01 03:07:55;;;;;;;;;;;24.80;51.80;;;;;;5037307;28;20537;-65
2022/09/01 03:10:23;;;;;;;;;;;24.80;51.80;;;;;;5022592;28;19905;-65
2022/09/01 03:12:49;;;;;;;1.92;1.20;;;24.80;51.80;;;;;;5018986;28;19905;-64
2022/09/01 03:15:14;;;;;;;1.75;1.30;;;24.80;51.80;;;;;;5021684;28;20135;-64
2022/09/01 03:17:40;;;;;;;1.88;1.20;;;24.80;52.30;;;;;;5035997;28;20033;-66
2022/09/01 03:20:07;;;;;;;1.48;1.10;;;24.80;52.30;;;;;;5021512;28;20367;-65
2022/09/01 03:22:32;;;;;;;1.60;1.20;;;24.80;51.80;;;;;;5036310;28;20028;-65
2022/09/01 03:24:58;;;;;;;1.85;1.30;;;24.80;51.80;;;;;;5021601;28;20033;-66
2022/09/01 03:27:24;;;;;;;1.80;1.20;;;24.80;51.80;;;;;;5021739;28;20029;-65
2022/09/01 03:29:50;;;;;;;1.77;1.15;;;24.80;51.90;;;;;;5021739;28;20038;-66
2022/09/01 03:32:16;;;;;;;1.67;1.20;;;24.80;51.80;;;;;;5020284;28;20087;-67
2022/09/01 03:34:41;;;;;;;2.25;1.55;;;24.80;51.80;;;;;;5019827;28;20065;-66
2022/09/01 03:37:11;;;;;;;1.83;1.30;;;24.80;51.90;;;;;;5040966;28;20025;-66
2022/09/01 03:39:37;;;;;;;;;;;24.80;51.90;;;;;;5036310;28;20033;-66
2022/09/01 03:42:03;;;;;;;1.75;1.20;;;24.80;51.90;;;;;;5020190;28;19916;-65
2022/09/01 03:44:29;;;;;;;1.58;1.30;;;24.80;51.90;;;;;;5020011;28;20022;-65
2022/09/01 03:46:57;;;;;;;1.50;1.20;;;24.70;51.90;;;;;;5022015;28;20032;-65
2022/09/01 03:49:26;;;;;;;1.98;1.40;;;24.70;51.90;;;;;;5018977;28;20029;-64
2022/09/01 03:51:56;;;;;;;;;;;24.70;51.90;;;;;;5035162;28;20037;-65
2022/09/01 03:54:24;;;;;;;1.33;1.20;;;24.70;51.90;;;;;;5022263;28;19913;-64
2022/09/01 03:56:50;;;;;;;1.67;1.30;;;24.70;51.80;;;;;;5021865;28;20025;-65
2022/09/01 03:59:16;;;;;;;1.58;1.25;;;24.70;51.90;;;;;;5019771;28;20555;-65
2022/09/01 04:01:43;;;;;;;1.80;1.40;;;24.70;51.90;;;;;;5034515;28;20064;-66
2022/09/01 04:04:12;;;;;;;1.85;1.38;;;24.70;51.90;;;;;;5018213;28;20521;-65
2022/09/01 04:06:40;;;;;;;1.58;1.15;;;24.70;51.90;;;;;;5020315;28;20029;-65
2022/09/01 04:09:06;;;;;;;1.23;1.08;;;24.70;51.90;;;;;;5020227;28;20053;-64
2022/09/01 04:11:38;;;;;;;1.50;1.20;;;24.70;51.90;;;;;;5024407;28;20029;-64
2022/09/01 04:14:03;;;;;;;1.88;1.48;;;24.70;51.90;;;;;;5023363;28;20046;-64
2022/09/01 04:19:18;;;;;;;1.35;1.10;;;24.70;52.50;;;;;;5021451;28;20511;-65
2022/09/01 04:21:53;;;;;;;1.70;1.20;;;24.70;51.90;;;;;;5019668;28;20108;-65
2022/09/01 04:24:20;;;;;;;1.25;1.13;;;24.70;51.90;;;;;;5036714;28;20087;-65
2022/09/01 04:26:47;;;;;;;1.70;1.20;;;24.70;51.90;;;;;;5035241;28;20065;-66
2022/09/01 04:29:14;;;;;;;1.77;1.27;;;24.70;51.90;;;;;;5020364;28;20029;-65
2022/09/01 04:31:43;;;;;;;1.60;1.30;;;24.70;51.90;;;;;;5034119;28;20497;-65
2022/09/01 04:34:15;;;;;;;1.85;1.40;;;24.70;52.00;;;;;;5019113;28;20124;-65
2022/09/01 04:36:47;;;;;;;1.58;1.00;;;24.70;51.90;;;;;;5019370;28;20029;-65
2022/09/01 04:39:13;;;;;;;1.52;1.25;;;24.70;51.90;;;;;;5018921;28;20029;-65
2022/09/01 04:41:46;;;;;;;1.85;1.20;;;24.70;51.90;;;;;;5034669;28;20022;-65
2022/09/01 04:44:17;;;;;;;1.90;1.52;;;24.70;51.90;;;;;;5033869;28;20080;-65
2022/09/01 04:46:49;;;;;;;1.67;1.30;;;24.70;51.90;;;;;;5018948;28;20061;-65
2022/09/01 04:49:19;;;;;;;1.65;1.20;;;24.70;51.90;;;;;;5020414;28;20454;-66
2022/09/01 04:51:50;;;;;;;1.55;1.30;;;24.70;52.00;;;;;;5019917;28;20163;-64
2022/09/01 04:54:17;;;;;;;1.80;1.30;;;24.70;52.00;;;;;;5019527;28;20443;-66
2022/09/01 04:56:49;;;;;;;1.50;1.23;;;24.60;51.90;;;;;;5020309;28;20495;-65
2022/09/01 04:59:19;;;;;;;2.20;1.65;;;24.60;51.90;;;;;;5024183;28;20018;-65
2022/09/01 05:01:45;;;;;;;1.52;1.20;;;24.70;52.00;;;;;;5022636;28;20022;-66
2022/09/01 05:04:16;;;;;;;1.48;1.27;;;24.60;51.90;;;;;;5039664;28;20362;-64
2022/09/01 05:06:48;;;;;;;1.38;1.20;;;24.60;51.90;;;;;;5023063;28;20172;-65
2022/09/01 05:09:16;;;;;;;1.73;1.30;;;24.60;51.90;;;;;;5020470;28;20026;-65
2022/09/01 05:11:47;;;;;;;1.50;1.30;;;24.70;51.90;;;;;;5023597;28;20109;-65
2022/09/01 05:14:13;;;;;;;1.67;1.20;;;24.60;51.90;;;;;;5022565;28;20045;-65
2022/09/01 05:16:43;;;;;;;2.00;1.40;;;24.60;51.90;;;;;;5040744;28;20021;-66
2022/09/01 05:19:13;;;;;;;1.13;1.02;;;24.60;51.90;;;;;;5022599;28;20022;-66
2022/09/01 05:21:44;;;;;;;1.50;1.23;;;24.60;51.90;;;;;;5038923;28;20033;-66
2022/09/01 05:24:13;;;;;;;1.85;1.25;;;24.60;51.90;;;;;;5038887;28;20037;-65
2022/09/01 05:26:39;;;;;;;1.38;1.10;;;24.60;51.90;;;;;;5023534;28;20109;-65
2022/09/01 05:29:16;;;;;;;1.83;1.30;;;24.60;51.90;;;;;;5022789;28;20026;-64
2022/09/01 05:31:45;;;;;;;1.60;1.20;;;24.60;51.90;;;;;;5036837;28;20034;-65
2022/09/01 05:34:25;;;;;;;1.60;1.17;;;24.60;51.90;;;;;;5038890;28;20034;-64
2022/09/01 05:36:53;;;;;;;2.00;1.30;;;24.60;51.90;;;;;;5023582;28;20101;-65
2022/09/01 05:39:19;;;;;;;1.88;1.30;;;24.60;51.90;;;;;;5023951;28;20583;-65
2022/09/01 05:41:46;;;;;;;1.63;1.23;;;24.60;51.90;;;;;;5022806;28;20021;-65
2022/09/01 05:44:14;;;;;;;1.48;1.10;;;24.60;51.90;;;;;;5041901;28;20580;-66
2022/09/01 05:46:43;;;;;;;1.48;1.20;;;24.60;52.00;;;;;;5035015;28;20116;-64
2022/09/01 05:49:12;;;;;;;1.55;1.23;;;24.50;51.90;;;;;;5038268;28;20037;-66
2022/09/01 05:51:48;;;;;;;1.20;0.98;;;24.60;51.90;;;;;;5038260;28;20033;-65
2022/09/01 05:54:20;;;;;;;1.50;1.20;;;24.50;51.90;;;;;;5039191;28;20033;-65
2022/09/01 05:56:46;;;;;;;1.67;1.27;;;24.60;52.00;;;;;;5023423;28;20018;-65
2022/09/01 05:59:13;;;;;;;1.48;1.20;;;24.60;52.00;;;;;;5021733;28;20496;-65
2022/09/01 06:01:46;;;;;;;1.50;1.20;;;24.60;52.00;;;;;;5023155;28;20052;-64
2022/09/01 06:04:15;;;;;;;1.70;1.30;;;24.60;52.00;;;;;;5020848;28;20038;-65
2022/09/01 06:06:52;;;;;;;1.45;1.20;;;24.50;51.90;;;;;;5038656;28;20083;-65
2022/09/01 06:09:18;;;;;;;1.60;1.23;;;24.60;52.00;;;;;;5020009;28;20022;-66
2022/09/01 06:11:47;;;;;;;1.80;1.30;;;24.50;51.90;;;;;;5022013;28;20417;-64
2022/09/01 06:14:16;;;;;;;1.25;1.15;;;24.50;51.90;;;;;;5020756;28;20050;-66
2022/09/01 06:16:42;;;;;;;1.63;1.10;;;24.50;52.00;;;;;;5022510;28;20021;-64
2022/09/01 06:19:11;;;;;;;1.42;1.20;;;24.50;52.50;;;;;;5022934;28;20539;-65
2022/09/01 06:21:40;;;;;;;1.40;1.10;;;24.50;52.00;;;;;;5037782;28;20097;-64
2022/09/01 06:24:06;;;;;;;1.63;1.30;;;24.50;52.00;;;;;;5035647;28;20029;-64
2022/09/01 06:26:35;;;;;;;1.40;1.20;;;24.50;52.00;;;;;;5022492;28;20030;-66
2022/09/01 06:29:14;;;;;;;1.33;1.13;;;24.50;52.00;;;;;;5022750;28;20097;-65
2022/09/01 06:31:41;;;;;;;1.85;1.30;;;24.50;52.00;;;;;;5036126;28;20033;-65
2022/09/01 06:34:09;;;;;;;1.65;1.25;;;24.50;52.00;;;;;;5021038;28;20022;-65
2022/09/01 06:36:39;;;;;;;1.60;1.30;;;24.50;52.00;;;;;;5036971;28;20453;-64
2022/09/01 06:39:06;;;;;;;1.40;1.10;;;24.50;52.00;;;;;;5038103;28;20033;-65
2022/09/01 06:41:32;;;;;;;1.58;1.10;;;24.50;52.00;;;;;;5022459;28;20239;-65
2022/09/01 06:44:00;;;;;;;1.40;1.17;;;24.60;52.10;;;;;;5021138;28;20025;-64
2022/09/01 06:46:29;;;;;;;1.30;1.00;;;24.50;52.00;;;;;;5022025;28;20498;-65
2022/09/01 06:48:57;;;;;;;1.27;1.05;;;24.50;52.10;;;;;;5036688;28;20068;-66
2022/09/01 06:51:27;;;;;;;1.47;1.03;;;24.60;52.10;;;;;;5021661;28;20030;-67
2022/09/01 06:53:58;;;;;;;1.27;1.08;;;24.60;52.10;;;;;;5021347;28;20551;-66
2022/09/01 06:56:28;;;;;;;1.58;1.15;;;24.60;52.00;;;;;;5036457;28;20029;-65
2022/09/01 06:59:00;;;;;;;1.52;1.20;;;24.60;52.00;;;;;;5019527;28;20029;-64
2022/09/01 07:01:26;;;;;;;1.52;1.20;;;24.70;51.90;;;;;;5022444;28;20030;-65
2022/09/01 07:03:53;;;;;;;1.60;1.17;;;24.70;51.80;;;;;;5038147;28;20030;-64
2022/09/01 07:06:26;;;;;;;1.35;1.20;;;24.80;51.80;;;;;;5021231;28;20129;-64
2022/09/01 07:08:56;;;;;;;1.30;1.00;;;24.80;51.70;;;;;;5035380;28;20037;-64
2022/09/01 07:11:26;;;;;;;1.85;1.40;;;24.80;51.70;;;;;;5038121;28;20050;-64
2022/09/01 07:13:54;;;;;;;1.17;1.08;;;24.80;51.60;;;;;;5020194;28;20046;-66
2022/09/01 07:16:23;;;;;;;1.50;1.30;;;24.80;51.60;;;;;;5037587;28;20064;-66
2022/09/01 07:18:50;;;;;;;1.60;1.20;;;24.90;51.60;;;;;;5034539;28;20033;-64
2022/09/01 07:21:17;;;;;;;1.70;1.30;;;24.90;51.50;;;;;;5019407;28;20112;-64
2022/09/01 07:23:43;;;;;;;1.25;1.15;;;24.90;51.40;;;;;;5022037;28;20480;-65
2022/09/01 07:26:11;;;;;;;1.92;1.38;;;25.00;51.40;;;;;;5018722;28;20087;-64
2022/09/01 07:28:37;;;;;;;1.33;1.10;;;25.00;51.30;;;;;;5035277;28;20425;-64
2022/09/01 07:31:04;;;;;;;2.33;1.50;;;25.00;51.30;;;;;;5020459;28;20128;-63
2022/09/01 07:33:32;;;;;;;2.08;1.50;;;25.10;51.30;;;;;;5037551;28;20072;-65
2022/09/01 07:35:58;;;;;;;1.60;1.20;;;25.10;51.20;;;;;;5036639;28;20046;-64
2022/09/01 07:38:24;;;;;;;2.40;1.30;;;25.10;51.20;;;;;;5036700;28;20136;-64
2022/09/01 07:40:54;;;;;;;1.23;1.10;;;25.10;51.10;;;;;;5017150;28;20386;-63
2022/09/01 07:43:23;;;;;;;;;;;25.20;51.10;;;;;;5021539;28;20033;-64
2022/09/01 07:45:54;;;;;;;1.55;1.20;;;25.20;51.00;;;;;;5020138;28;19936;-66
2022/09/01 07:48:22;;;;;;;1.95;1.20;;;25.20;51.00;;;;;;5022296;28;20029;-66
2022/09/01 07:50:51;;;;;;;2.58;1.27;;;25.20;51.00;;;;;;5020323;28;20025;-64
2022/09/01 07:53:22;;;;;;;1.70;1.33;;;25.30;51.70;;;;;;5021157;28;20120;-66
2022/09/01 07:55:50;;;;;;;1.58;1.27;;;25.30;51.10;;;;;;5018854;28;20520;-66
2022/09/01 07:58:18;;;;;;;1.50;1.20;;;25.30;51.00;;;;;;5022778;28;20084;-65
2022/09/01 08:00:46;;;;;;;1.70;1.33;;;25.30;51.00;;;;;;5033401;28;20033;-65
2022/09/01 08:03:13;;;;;;;2.13;1.35;;;25.40;51.00;;;;;;5020297;28;20101;-65
2022/09/01 08:05:39;;;;;;;1.67;1.40;;;25.40;50.90;;;;;;5035414;28;20061;-64
2022/09/01 08:08:05;;;;;;;1.40;1.20;;;25.40;50.90;;;;;;5021771;28;20037;-64
2022/09/01 08:10:32;;;;;;;1.60;1.30;;;25.40;50.90;;;;;;5020968;28;20025;-65
2022/09/01 08:12:58;;;;;;;1.55;1.30;;;25.40;50.90;;;;;;5023783;28;20457;-66
2022/09/01 08:15:24;;;;;;;1.55;1.27;;;25.40;50.80;;;;;;5023145;28;20087;-65
2022/09/01 08:17:50;;;;;;;1.80;1.30;;;25.50;50.80;;;;;;5018739;28;20049;-65
2022/09/01 08:20:16;;;;;;;1.40;1.20;;;25.50;50.70;;;;;;5022633;28;20087;-65
2022/09/01 08:22:42;;;;;;;1.65;1.27;;;25.50;50.70;;;;;;5035964;28;20022;-66
2022/09/01 08:25:08;;;;;;;1.58;1.40;;;25.50;50.60;;;;;;5017989;28;20025;-65
2022/09/01 08:27:37;;;;;;;2.10;1.50;;;25.60;50.70;;;;;;5036200;28;20037;-66
2022/09/01 08:30:06;;;;;;;1.50;1.20;;;25.50;50.60;;;;;;5018757;28;20037;-70
2022/09/01 08:32:33;;;;;;;;;;;25.60;50.60;;;;;;5039485;28;20030;-64
2022/09/01 08:35:05;;;;;;;1.65;1.40;;;25.60;50.60;;;;;;5022543;28;20278;-65
2022/09/01 08:37:31;;;;;;;2.15;1.30;;;25.60;50.50;;;;;;5039257;28;20076;-65
2022/09/01 08:39:57;;;;;;;1.83;1.40;;;25.60;50.60;;;;;;5025017;28;20021;-65
2022/09/01 08:42:47;;;;;;;1.45;1.27;;;25.70;50.60;;;;;;5023989;28;20033;-64
2022/09/01 08:45:41;;;;;;;1.60;1.20;;;25.70;50.50;;;;;;5023436;28;20031;-65
2022/09/01 08:48:18;;;;;;;2.08;1.30;;;25.70;50.50;;;;;;5037574;28;20361;-71
2022/09/01 08:50:50;;;;;;;1.55;1.20;;;25.70;50.50;;;;;;5023273;28;20392;-70
2022/09/01 08:53:26;;;;;;;1.52;1.23;;;25.70;50.40;;;;;;5037570;28;20141;-68
2022/09/01 08:55:56;;;;;;;1.80;1.30;;;25.70;50.40;;;;;;5038469;28;20053;-70
2022/09/01 08:58:22;;;;;;;1.67;1.30;;;25.70;50.40;;;;;;5039166;28;20430;-69
2022/09/01 09:00:55;;;;;;;1.90;1.50;;;25.70;50.30;;;;;;5022125;28;20048;-71
2022/09/01 09:03:41;;;;;;;2.47;1.70;;;25.70;50.40;;;;;;5038311;28;20386;-69
2022/09/01 09:06:20;;;;;;;1.67;1.35;;;25.80;50.40;;;;;;5023775;28;20029;-72
2022/09/01 09:08:58;;;;;;;1.50;1.20;;;25.80;50.30;;;;;;5023255;28;20026;-73
2022/09/01 09:11:44;;;;;;;1.63;1.30;;;25.80;50.30;;;;;;5024161;28;20038;-71
2022/09/01 09:14:31;;;;;;;1.35;1.17;;;25.80;50.30;;;;;;5022702;28;20580;-73
2022/09/01 09:16:57;;;;;;;1.80;1.30;;;25.80;50.30;;;;;;5023588;28;20021;-69
2022/09/01 09:19:34;;;;;;;1.98;1.33;;;25.80;50.20;;;;;;5023904;28;20124;-68
2022/09/01 09:22:03;;;;;;;1.70;1.40;;;25.80;50.30;;;;;;5037775;28;20025;-69
2022/09/01 09:24:48;;;;;;;;;;;25.80;50.20;;;;;;5023939;28;20075;-69
2022/09/01 09:27:22;;;;;;;1.80;1.45;;;25.90;50.20;;;;;;5039566;28;19909;-69
2022/09/01 09:29:56;;;;;;;1.60;1.23;;;25.90;50.10;;;;;;5023560;28;20400;-69
2022/09/01 09:32:47;;;;;;;1.48;1.30;;;25.90;50.10;;;;;;5022283;28;20062;-69
2022/09/01 09:35:29;;;;;;;1.90;1.42;;;25.90;50.10;;;;;;5023677;28;20141;-68
2022/09/01 09:37:55;;;;;;;2.00;1.40;;;25.90;50.10;;;;;;5038286;28;20099;-68
2022/09/01 09:40:25;;;;;;;1.90;1.40;;;25.90;50.10;;;;;;5022299;28;20081;-69
2022/09/01 09:42:54;;;;;;;1.83;1.30;;;25.90;50.00;;;;;;5019700;28;20497;-68
2022/09/01 09:45:33;;;;;;;2.08;1.60;;;25.90;50.00;;;;;;5036779;28;20034;-68
2022/09/01 09:47:59;;;;;;;1.88;1.40;;;25.90;50.00;;;;;;5037549;28;20061;-72
2022/09/01 09:50:38;;;;;;;2.03;1.40;;;25.90;50.10;;;;;;5037436;28;20025;-72
2022/09/01 09:53:13;;;;;;;1.95;1.20;;;25.90;50.10;;;;;;5021514;28;20036;-73
2022/09/01 09:55:59;;;;;;;1.92;1.45;;;25.90;50.10;;;;;;5022216;28;20044;-70
2022/09/01 09:58:41;;;;;;;2.50;1.45;;;25.90;50.10;;;;;;5022826;28;20067;-72
2022/09/01 10:01:30;;;;;;;1.80;1.23;;;25.90;50.10;;;;;;5021591;28;20026;-71
2022/09/01 10:03:58;;;;;;;;;;;25.90;50.60;;;;;;5017644;28;20566;-71
2022/09/01 10:06:37;;;;;;;1.80;1.38;;;25.90;50.20;;;;;;5022087;28;20257;-69
2022/09/01 10:09:13;;;;;;;1.65;1.30;;;25.90;50.10;;;;;;5022337;28;20108;-70
2022/09/01 10:11:47;;;;;;;1.83;1.65;;;25.90;50.10;;;;;;5022603;28;20038;-70
2022/09/01 10:14:32;;;;;;;1.70;1.50;;;25.90;50.10;;;;;;5021568;28;20140;-71
2022/09/01 10:17:07;;;;;;;2.10;1.58;;;26.00;50.10;;;;;;5019027;28;20075;-71
2022/09/01 10:19:39;;;;;;;1.75;1.30;;;26.00;50.10;;;;;;5022542;28;20018;-71
2022/09/01 10:22:04;;;;;;;2.72;1.40;;;26.00;50.20;;;;;;5022016;28;20105;-71
2022/09/01 10:24:34;;;;;;;1.98;1.40;;;26.00;50.20;;;;;;5022738;28;20460;-70
2022/09/01 10:27:07;;;;;;;2.08;1.50;;;26.00;50.20;;;;;;5021639;28;20080;-71
2022/09/01 10:29:41;;;;;;;1.83;1.60;;;26.00;50.10;;;;;;5019629;28;20029;-71
2022/09/01 10:32:16;;;;;;;2.15;1.70;;;26.10;50.10;;;;;;5020260;28;20040;-72
2022/09/01 10:34:44;;;;;;;1.52;1.30;;;26.10;50.20;;;;;;5036475;28;20029;-72
2022/09/01 10:37:11;;;;;;;1.88;1.50;;;26.10;50.10;;;;;;5036789;28;20030;-70
2022/09/01 10:40:08;;;;;;;1.80;1.40;;;26.10;50.00;;;;;;5020426;28;20026;-72
2022/09/01 10:42:34;;;;;;;1.92;1.50;;;26.10;50.00;;;;;;5036584;28;20030;-70
2022/09/01 10:45:00;;;;;;;1.83;1.50;;;26.10;50.00;;;;;;5021683;28;20060;-69
2022/09/01 10:47:36;;;;;;;1.80;1.40;;;26.10;49.90;;;;;;5033506;28;20393;-68
2022/09/01 10:50:25;;;;;;;1.88;1.50;;;26.20;50.00;;;;;;5019706;28;20707;-70
2022/09/01 10:52:51;;;;;;;;;;;26.20;50.00;;;;;;5021755;28;20025;-71
2022/09/01 10:55:27;;;;;;;2.22;1.50;;;26.20;49.90;;;;;;5018844;28;19913;-70
2022/09/01 10:58:18;;;;;;;1.73;1.38;;;26.20;49.80;;;;;;5017619;28;20512;-71
2022/09/01 11:00:47;;;;;;;2.20;1.50;;;26.20;49.80;;;;;;5020618;28;20026;-71
2022/09/01 11:03:14;;;;;;;2.20;1.40;;;26.20;50.30;;;;;;5020528;28;20036;-69
2022/09/01 11:05:57;;;;;;;2.00;1.58;;;26.20;49.90;;;;;;5021312;28;20029;-71
2022/09/01 11:08:26;;;;;;;2.03;1.58;;;26.20;49.80;;;;;;5036381;28;20033;-69
2022/09/01 11:11:05;;;;;;;2.28;1.40;;;26.30;49.80;;;;;;5021002;28;20152;-71
2022/09/01 11:13:44;;;;;;;1.88;1.55;;;26.20;49.80;;;;;;5036911;28;20037;-71
2022/09/01 11:16:29;;;;;;;1.92;1.50;;;26.30;49.90;;;;;;5037016;28;20443;-71
2022/09/01 11:19:16;;;;;;;2.17;1.65;;;26.30;49.90;;;;;;5019853;28;20053;-70
2022/09/01 11:21:42;;;;;;;2.10;1.63;;;26.30;49.80;;;;;;5017509;28;20108;-69
2022/09/01 11:24:40;;;;;;;1.92;1.40;;;26.30;49.90;;;;;;5022409;28;20388;-69
2022/09/01 11:27:09;;;;;;;2.67;1.80;;;26.30;49.90;;;;;;4985646;28;20041;-71
2022/09/01 11:29:55;;;;;;;2.00;1.40;;;26.30;49.90;;;;;;5037022;28;20076;-67
2022/09/01 11:32:26;;;;;;;1.92;1.40;;;26.30;50.00;;;;;;5034131;28;20057;-67
2022/09/01 11:34:54;;;;;;;1.90;1.40;;;26.30;50.10;;;;;;5035455;28;20442;-69
2022/09/01 11:37:23;;;;;;;2.13;1.40;;;26.30;50.00;;;;;;5025252;28;20033;-70
2022/09/01 11:39:53;;;;;;;2.08;1.33;;;26.30;50.10;;;;;;5024999;28;20030;-70
2022/09/01 11:42:24;;;;;;;1.92;1.40;;;26.40;50.10;;;;;;5023463;28;20370;-72
2022/09/01 11:45:11;;;;;;;1.88;1.52;;;26.30;50.00;;;;;;5025574;28;20482;-71
2022/09/01 11:47:42;;;;;;;1.70;1.40;;;26.40;50.00;;;;;;5019105;28;20025;-72
2022/09/01 11:50:25;;;;;;;1.83;1.40;;;26.40;50.00;;;;;;5021422;28;20040;-71
2022/09/01 11:53:04;;;;;;;2.00;1.48;;;26.40;50.00;;;;;;5022314;28;20036;-71
2022/09/01 11:55:37;;;;;;;1.60;1.40;;;26.40;50.00;;;;;;5021387;28;20473;-70
2022/09/01 11:58:04;;;;;;;2.22;1.60;;;26.40;50.00;;;;;;5021552;28;20053;-70
2022/09/01 12:00:37;;;;;;;2.05;1.58;;;26.40;50.00;;;;;;5020017;28;20030;-71
2022/09/01 12:03:22;;;;;;;2.08;1.40;;;26.40;50.00;;;;;;5025113;28;20047;-70
2022/09/01 12:05:58;;;;;;;1.70;1.40;;;26.40;50.20;;;;;;5021652;28;20044;-72
2022/09/01 12:08:25;;;;;;;1.95;1.33;;;26.50;50.80;;;;;;5021693;28;20434;-72
2022/09/01 12:11:12;;;;;;;1.73;1.38;;;26.50;50.80;;;;;;5023542;28;20033;-71
2022/09/01 12:13:40;;;;;;;2.25;1.40;;;26.60;50.80;;;;;;5021276;28;20375;-69
2022/09/01 12:16:09;;;;;;;1.65;1.30;;;26.60;50.50;;;;;;5016001;28;20052;-70
2022/09/01 12:18:43;;;;;;;1.50;1.30;;;26.60;50.60;;;;;;5019340;28;20543;-69
2022/09/01 12:21:25;;;;;;;2.20;1.42;;;26.60;50.40;;;;;;5020244;28;20481;-71
2022/09/01 12:23:50;;;;;;;2.13;1.33;;;26.60;50.50;;;;;;5021120;28;20458;-69
2022/09/01 12:26:25;;;;;;;2.08;1.40;;;26.60;50.40;;;;;;5019929;28;20034;-70
2022/09/01 12:28:52;;;;;;;1.70;1.45;;;26.70;50.10;;;;;;5020999;28;20404;-70
2022/09/01 12:31:27;;;;;;;1.20;1.10;;;26.70;50.10;;;;;;5021786;28;20055;-69
2022/09/01 12:33:55;;;;;;;1.52;1.20;;;26.70;50.20;;;;;;5021273;28;20041;-71
2022/09/01 12:36:33;;;;;;;1.63;1.20;;;26.80;50.10;;;;;;5019210;28;20112;-71
2022/09/01 12:39:23;;;;;;;1.63;1.40;;;26.80;50.20;;;;;;5019791;28;20036;-71
2022/09/01 12:42:06;;;;;;;2.67;1.30;;;26.80;50.10;;;;;;5015503;28;20436;-72
2022/09/01 12:44:37;;;;;;;1.33;1.13;;;26.80;50.10;;;;;;5032842;28;20030;-71
2022/09/01 12:47:08;;;;;;;1.50;1.20;;;26.90;50.00;;;;;;5020083;28;20088;-69
2022/09/01 12:49:43;;;;;;;1.65;1.20;;;26.90;49.90;;;;;;5022295;28;20536;-70
2022/09/01 12:52:24;;;;;;;1.33;1.20;;;26.90;49.80;;;;;;5034336;28;20448;-69
2022/09/01 12:55:02;;;;;;;1.67;1.25;;;26.80;49.80;;;;;;5018902;28;20470;-70
2022/09/01 12:57:33;;;;;;;1.40;1.30;;;26.90;49.90;;;;;;5014505;28;20511;-70
2022/09/01 13:00:29;;;;;;;1.35;1.20;;;26.90;49.90;;;;;;5022062;28;20022;-69
2022/09/01 13:03:06;;;;;;;1.50;1.20;;;26.90;49.90;;;;;;5015743;28;20111;-69
2022/09/01 13:05:41;;;;;;;2.10;1.25;;;26.90;49.90;;;;;;5021746;28;20026;-69
2022/09/01 13:08:10;;;;;;;2.80;1.23;;;26.90;49.80;;;;;;5018282;28;20029;-68
2022/09/01 13:10:41;;;;;;;1.40;1.30;;;27.00;49.90;;;;;;5021224;28;20204;-71
2022/09/01 13:13:08;;;;;;;1.55;1.10;;;27.00;49.70;;;;;;5037411;28;20481;-68